Terminal Aerodrome Forecast
Issued by NWS

Home | Current Version | Previous Version | Text Only | Print | Product List | Glossary On
Versions: 1 2 3 4 5 6 7 8 9 10 11 12
000
FTUS45 KABQ 300526
TAFROW
TAF
KROW 300526Z 3006/3106 15005KT P6SM SKC
     FM301900 16016G24KT P6SM SCT090
     FM310200 15007KT P6SM SCT200=

USA.gov is the U.S. government's official web portal to all federal, state and local government web resources and services.